Terminal Aerodrome Forecast
Issued by NWS

Home | Current Version | Previous Version | Text Only | Print | Product List | Glossary On
Versions: 1 2 3 4 5 6 7 8 9 10 11 12 13 14 15 16 17 18 19 20 21
306
FTUS41 KBTV 261126
TAFSLK
TAF
KSLK 261126Z 2612/2712 09004KT P6SM SCT200
     FM261600 11005KT P6SM BKN100
     FM262000 14005KT P6SM VCSH OVC045
     FM270300 17007KT 4SM -FZRA BR OVC050
     FM270700 18008KT 3SM -RA BR OVC050 WS020/20035KT
     FM270900 17007KT 3SM -RA BR OVC020 WS020/19035KT=

USA.gov is the U.S. government's official web portal to all federal, state and local government web resources and services.